Silsbee, Texas
Current Conditions -  °F | °C
As of 9:55 AM on Friday 21 Nov 2014 (Local Time) from KBMT Reporting Station
Overcast Overcast  
Wind Chill: 62°   Ceiling: 5000
Heat Index: 62°   Visibility: 7mi
Dew Point: 61°   Wind: 9mph
Humidity: 95%   Direction: 110°ESE
Pressure: 30.21"   Gusts: NA
Location:  30.35°N, 94.18°W
Report Text: KBMT 211555Z AUTO 11008KT 7SM SCT036 SCT043 OVC050 17/16 A3021 RMK AO2 T01690161
Loading
Personal Weather Stations






























Interactive Weather Map New forecast layout! Learn more

10-Day Weather Forecast

Advertisements
Track Severe Weather on mobile